Louisville International Standiford Field Louisville US
ICAO: KSDF
IATA: SDF
Category: Large
Scheduled Services: Yes

Elevation: 501 ft
TransAlt. 18000 ft.

Airport Communications:
APP:123.675
ATIS:118.725
CLNC DEL:126.1
DEP:123.675
GND:121.7
ANG OPS:26.81
TWR:124.2
UNICOM:122.95

KSDF Zoom In..

Runways:

(A) RW 11 length 7250 ft width 150 ft
LOC 109.10 / hdg 114

(B) RW 17L length 8579 ft width 150 ft
ILS 111.95 / hdg 168

(C) RW 17R length 11887 ft width 150 ft
ILS 110.30 / hdg 168

(D) RW 29 length 7250 ft width 150 ft
LOC 109.10 / hdg 294

(E) RW 35L length 11887 ft width 150 ft
ILS 109.35 / hdg 348

(F) RW 35R length 8579 ft width 150 ft
ILS 110.55 / hdg 348

Location; KSDF
Day. 21 / Time. 23.56 Zulu
* Altimeter: 30.03
* Temperature: 14° c. 57.2°f.
* Wind from: 180° Speed 06 kn.
Dewpoint: 11° c.
Visibility: 10 Statute Miles.
Clouds: Overcast 3000 ft.

KSDF 212356Z 18006KT 10SM OVC030 14/11 A3003 RMK AO2 SLP169 T01440106 10150 20133 56006


Wind From 180°
Speed 06 kn.

jpsM music video
CHECK IT OUT

jpsM - It Moves..

 
jpsmedia.com for Web Design  worldairports.se 2018   terms of use